Time;durP1;ratioP1;P1;durP2;ratioP2;P2;SDS_P1;SDS_P2;PMS_P1;PMS_P2;Temp;Humidity;BMP_temperature;BMP_pressure;BME280_temperature;BME280_humidity;BME280_pressure;Samples;Min_cycle;Max_cycle;Signal;HPM_P1;HPM_P2
2021/07/31 00:00:04;;;;;;;0.20;0.20;;;19.00;99.90;;;;;;5091788;28;20208;-84
2021/07/31 00:02:30;;;;;;;0.20;0.20;;;18.90;99.90;;;;;;5100142;28;20189;-84
2021/07/31 00:04:55;;;;;;;0.10;0.10;;;18.90;99.90;;;;;;5095128;28;20645;-84
2021/07/31 00:07:21;;;;;;;0.63;0.63;;;18.80;99.90;;;;;;5101372;28;20633;-84
2021/07/31 00:09:47;;;;;;;0.43;0.13;;;18.90;99.90;;;;;;5092040;28;20184;-83
2021/07/31 00:12:12;;;;;;;0.17;0.17;;;18.70;99.90;;;;;;5098994;28;20203;-84
2021/07/31 00:14:38;;;;;;;0.20;0.20;;;18.80;99.90;;;;;;5093004;28;20191;-84
2021/07/31 00:17:06;;;;;;;0.20;0.20;;;18.80;99.90;;;;;;5090974;28;20195;-84
2021/07/31 00:19:32;;;;;;;0.23;0.23;;;18.80;99.90;;;;;;5085106;28;20208;-84
2021/07/31 00:21:58;;;;;;;0.30;0.30;;;18.80;99.90;;;;;;5100156;28;20238;-84
2021/07/31 00:24:23;;;;;;;0.30;0.30;;;18.70;99.90;;;;;;5095094;28;20245;-85
2021/07/31 00:26:49;;;;;;;0.20;0.20;;;18.80;99.90;;;;;;5094978;28;20192;-84
2021/07/31 00:29:14;;;;;;;0.10;0.10;;;18.80;99.90;;;;;;5092853;28;20556;-84
2021/07/31 00:31:40;;;;;;;0.20;0.20;;;18.60;99.90;;;;;;5095199;28;20220;-84
2021/07/31 00:34:06;;;;;;;0.30;0.30;;;18.70;99.90;;;;;;5090604;28;20180;-83
2021/07/31 00:36:31;;;;;;;0.27;0.27;;;18.70;99.90;;;;;;5088146;28;20185;-84
2021/07/31 00:38:57;;;;;;;0.20;0.20;;;18.60;99.90;;;;;;5107051;28;20191;-84
2021/07/31 00:41:22;;;;;;;0.30;0.30;;;18.60;99.90;;;;;;5105982;28;20299;-84
2021/07/31 00:43:48;;;;;;;3.20;0.33;;;18.70;99.90;;;;;;5106223;28;20652;-84
2021/07/31 00:46:14;;;;;;;0.30;0.30;;;18.70;99.90;;;;;;5087346;28;20270;-84
2021/07/31 00:48:40;;;;;;;0.10;0.10;;;18.70;99.90;;;;;;5088401;28;20690;-84
2021/07/31 00:51:06;;;;;;;0.17;0.17;;;18.70;99.90;;;;;;5103000;28;20687;-84
2021/07/31 00:53:33;;;;;;;0.23;0.23;;;18.80;99.90;;;;;;5098340;28;20205;-84
2021/07/31 00:55:58;;;;;;;0.33;0.33;;;18.80;99.90;;;;;;5089116;28;20686;-84
2021/07/31 00:58:25;;;;;;;1.47;1.37;;;18.80;99.90;;;;;;5102900;28;20269;-84
2021/07/31 01:00:51;;;;;;;0.10;0.10;;;18.90;99.90;;;;;;5086612;28;20250;-84
2021/07/31 01:03:17;;;;;;;0.10;0.10;;;18.90;99.90;;;;;;5091047;28;20216;-85
2021/07/31 01:05:43;;;;;;;0.10;0.10;;;18.90;99.90;;;;;;5098104;28;20216;-84
2021/07/31 01:08:09;;;;;;;0.57;0.30;;;18.90;99.90;;;;;;5087973;28;20188;-84
2021/07/31 01:10:34;;;;;;;0.10;0.10;;;18.80;99.90;;;;;;5102018;28;20680;-84
2021/07/31 01:13:02;;;;;;;0.10;0.10;;;18.80;99.90;;;;;;5091345;28;20185;-84
2021/07/31 01:15:28;;;;;;;0.10;0.10;;;18.70;99.90;;;;;;5099637;28;20261;-85
2021/07/31 01:17:53;;;;;;;0.30;0.30;;;18.50;99.90;;;;;;5090616;28;20192;-84
2021/07/31 01:20:19;;;;;;;1.17;1.13;;;18.40;99.90;;;;;;5088910;28;20606;-84
2021/07/31 01:22:45;;;;;;;0.10;0.10;;;18.40;99.90;;;;;;5087586;28;20188;-85
2021/07/31 01:25:11;;;;;;;0.40;0.40;;;18.30;99.90;;;;;;5092690;28;20196;-84
2021/07/31 01:27:39;;;;;;;0.27;0.27;;;18.30;99.90;;;;;;5088323;28;20249;-84
2021/07/31 01:30:05;;;;;;;0.40;0.40;;;18.20;99.90;;;;;;5090358;28;20692;-84
2021/07/31 01:32:31;;;;;;;0.20;0.20;;;18.20;99.90;;;;;;5085358;28;20717;-84
2021/07/31 01:34:57;;;;;;;0.40;0.40;;;17.90;99.90;;;;;;5089253;28;20187;-83
2021/07/31 01:37:22;;;;;;;0.30;0.30;;;17.70;99.90;;;;;;5092370;28;20185;-84
2021/07/31 01:39:48;;;;;;;0.20;0.20;;;17.60;99.90;;;;;;5108440;28;20191;-84
2021/07/31 01:42:14;;;;;;;0.33;0.33;;;17.60;99.90;;;;;;5095612;28;20561;-84
2021/07/31 01:44:40;;;;;;;0.30;0.30;;;17.50;99.90;;;;;;5104477;28;20191;-84
2021/07/31 01:47:05;;;;;;;0.20;0.20;;;17.50;99.90;;;;;;5106907;28;20271;-84
2021/07/31 01:49:31;;;;;;;0.30;0.20;;;17.50;99.90;;;;;;5091791;28;20205;-84
2021/07/31 01:51:57;;;;;;;0.20;0.20;;;17.30;99.90;;;;;;5109692;28;20636;-84
2021/07/31 01:54:23;;;;;;;0.13;0.13;;;17.40;99.90;;;;;;5104413;28;20192;-84
2021/07/31 01:56:49;;;;;;;0.10;0.10;;;17.50;99.90;;;;;;5110517;28;20640;-84
2021/07/31 01:59:15;;;;;;;0.13;0.13;;;17.50;99.90;;;;;;5092208;28;20180;-84
2021/07/31 02:01:41;;;;;;;0.20;0.20;;;17.50;99.90;;;;;;5088276;28;20261;-84
2021/07/31 02:04:06;;;;;;;0.20;0.20;;;17.60;99.90;;;;;;5101567;28;20243;-84
2021/07/31 02:06:32;;;;;;;0.37;0.37;;;17.50;99.90;;;;;;5113808;28;20192;-84
2021/07/31 02:08:57;;;;;;;0.60;0.60;;;17.40;99.90;;;;;;5101213;28;20199;-84
2021/07/31 02:11:23;;;;;;;0.20;0.20;;;17.30;99.90;;;;;;5093095;28;20211;-84
2021/07/31 02:13:48;;;;;;;0.30;0.30;;;17.20;99.90;;;;;;5107431;28;20666;-83
2021/07/31 02:16:24;;;;;;;0.87;0.53;;;17.20;99.90;;;;;;5096484;28;20677;-84
2021/07/31 02:18:51;;;;;;;0.53;0.23;;;17.20;99.90;;;;;;5095224;28;20196;-84
2021/07/31 02:21:18;;;;;;;0.43;0.30;;;17.20;99.90;;;;;;5088943;28;20212;-84
2021/07/31 02:23:44;;;;;;;0.20;0.20;;;17.10;99.90;;;;;;5104501;28;20196;-84
2021/07/31 02:26:09;;;;;;;0.40;0.30;;;17.10;99.90;;;;;;5094440;28;20192;-84
2021/07/31 02:28:35;;;;;;;0.20;0.20;;;17.10;99.90;;;;;;5088566;28;20191;-84
2021/07/31 02:31:00;;;;;;;0.20;0.20;;;17.20;99.90;;;;;;5088183;28;20312;-84
2021/07/31 02:33:26;;;;;;;0.10;0.10;;;17.20;99.90;;;;;;5107085;28;20227;-84
2021/07/31 02:35:52;;;;;;;0.10;0.10;;;17.20;99.90;;;;;;5090051;28;20184;-84
2021/07/31 02:38:17;;;;;;;0.10;0.10;;;17.30;99.90;;;;;;5108531;28;20599;-83
2021/07/31 02:40:43;;;;;;;0.10;0.10;;;17.30;99.90;;;;;;5117797;27;20906;-84
2021/07/31 02:43:08;;;;;;;0.13;0.13;;;17.30;99.90;;;;;;5092550;28;20189;-84
2021/07/31 02:45:36;;;;;;;0.30;0.30;;;17.20;99.90;;;;;;5095069;28;20241;-84
2021/07/31 02:48:02;;;;;;;0.10;0.10;;;17.10;99.90;;;;;;5083245;28;20190;-84
2021/07/31 02:50:29;;;;;;;0.40;0.40;;;17.00;99.90;;;;;;5086197;28;20211;-84
2021/07/31 02:52:54;;;;;;;0.43;0.30;;;17.00;99.90;;;;;;5096301;28;20188;-84
2021/07/31 02:55:20;;;;;;;0.13;0.13;;;17.00;99.90;;;;;;5102971;28;20181;-84
2021/07/31 02:57:45;;;;;;;2.77;0.30;;;17.00;99.90;;;;;;5080878;28;20649;-84
2021/07/31 03:00:11;;;;;;;0.20;0.20;;;16.90;99.90;;;;;;5089892;28;20242;-84
2021/07/31 03:02:37;;;;;;;0.27;0.20;;;16.80;99.90;;;;;;5084344;28;20406;-84
2021/07/31 03:05:03;;;;;;;0.20;0.20;;;16.80;99.90;;;;;;5092285;28;20189;-84
2021/07/31 03:07:29;;;;;;;0.10;0.10;;;16.80;99.90;;;;;;5106220;28;20843;-84
2021/07/31 03:09:54;;;;;;;0.10;0.10;;;16.80;99.90;;;;;;5093713;28;20188;-84
2021/07/31 03:12:20;;;;;;;0.20;0.20;;;16.70;99.90;;;;;;5092934;28;20184;-84
2021/07/31 03:14:45;;;;;;;0.20;0.20;;;16.70;99.90;;;;;;5080036;28;20269;-84
2021/07/31 03:17:11;;;;;;;0.30;0.30;;;16.60;99.90;;;;;;5101910;28;20213;-84
2021/07/31 03:19:37;;;;;;;0.10;0.10;;;16.60;99.90;;;;;;5088360;28;20192;-83
2021/07/31 03:22:04;;;;;;;0.10;0.10;;;16.60;99.90;;;;;;5084821;28;20195;-84
2021/07/31 03:24:31;;;;;;;0.30;0.30;;;16.60;99.90;;;;;;5103181;28;20279;-84
2021/07/31 03:26:57;;;;;;;0.20;0.20;;;16.50;99.90;;;;;;5092673;28;20598;-84
2021/07/31 03:29:23;;;;;;;0.20;0.20;;;16.50;99.90;;;;;;5079739;28;20196;-84
2021/07/31 03:31:51;;;;;;;0.17;0.17;;;16.50;99.90;;;;;;5092179;28;20226;-85
2021/07/31 03:34:17;;;;;;;0.63;0.27;;;16.40;99.90;;;;;;5092914;28;20184;-83
2021/07/31 03:36:43;;;;;;;0.10;0.10;;;16.50;99.90;;;;;;5105876;28;20236;-84
2021/07/31 03:39:09;;;;;;;0.23;0.20;;;16.60;99.90;;;;;;5103910;28;20172;-84
2021/07/31 03:41:34;;;;;;;0.30;0.30;;;16.70;99.90;;;;;;5105114;28;20210;-84
2021/07/31 03:44:00;;;;;;;0.37;0.30;;;16.70;99.90;;;;;;5107863;28;20659;-84
2021/07/31 03:46:26;;;;;;;0.20;0.20;;;16.70;99.90;;;;;;5096302;28;20219;-84
2021/07/31 03:48:52;;;;;;;0.20;0.20;;;16.70;99.90;;;;;;5087397;28;20180;-84
2021/07/31 03:51:17;;;;;;;0.10;0.10;;;16.70;99.90;;;;;;5080860;28;20219;-84
2021/07/31 03:53:43;;;;;;;0.20;0.20;;;16.60;99.90;;;;;;5091326;28;20183;-84
2021/07/31 03:56:09;;;;;;;0.30;0.30;;;16.60;99.90;;;;;;5106873;28;20198;-84
2021/07/31 03:58:34;;;;;;;0.10;0.10;;;16.60;99.90;;;;;;5100941;28;20191;-84
2021/07/31 04:01:00;;;;;;;0.20;0.20;;;16.60;99.90;;;;;;5098515;28;20205;-84
2021/07/31 04:03:25;;;;;;;0.20;0.20;;;16.70;99.90;;;;;;5089905;28;20192;-84
2021/07/31 04:05:51;;;;;;;0.10;0.10;;;16.70;99.90;;;;;;5091037;28;20207;-84
2021/07/31 04:08:16;;;;;;;0.20;0.20;;;16.70;99.90;;;;;;5093136;28;20234;-84
2021/07/31 04:10:42;;;;;;;0.10;0.10;;;16.80;99.90;;;;;;5097245;28;20310;-84
2021/07/31 04:13:08;;;;;;;0.10;0.10;;;17.40;99.90;;;;;;5091605;28;20200;-84
2021/07/31 04:15:33;;;;;;;0.10;0.10;;;17.80;99.90;;;;;;5104386;28;20618;-84
2021/07/31 04:18:00;;;;;;;0.20;0.10;;;18.00;99.90;;;;;;5093549;28;20677;-84
2021/07/31 04:20:26;;;;;;;0.13;0.13;;;18.10;99.90;;;;;;5090212;28;20580;-83
2021/07/31 04:22:51;;;;;;;0.10;0.10;;;18.10;99.90;;;;;;5090558;28;20194;-83
2021/07/31 04:25:17;;;;;;;0.17;0.17;;;18.20;99.90;;;;;;5091943;28;20248;-84
2021/07/31 04:27:43;;;;;;;0.47;0.47;;;18.20;99.90;;;;;;5096529;28;20193;-85
2021/07/31 04:30:08;;;;;;;1.03;0.23;;;18.20;99.90;;;;;;5100060;28;20215;-83
2021/07/31 04:32:34;;;;;;;0.40;0.30;;;18.00;99.90;;;;;;5093649;28;20184;-85
2021/07/31 04:35:02;;;;;;;0.20;0.20;;;18.10;99.90;;;;;;5096477;28;20238;-84
2021/07/31 04:37:27;;;;;;;1.80;0.77;;;18.10;99.90;;;;;;5075122;28;20230;-84
2021/07/31 04:39:53;;;;;;;0.50;0.50;;;18.10;99.90;;;;;;5101359;28;20207;-84
2021/07/31 04:42:18;;;;;;;0.63;0.40;;;18.10;99.90;;;;;;5084366;28;20732;-84
2021/07/31 04:44:44;;;;;;;0.17;0.17;;;18.10;99.90;;;;;;5096062;28;20213;-84
2021/07/31 04:47:10;;;;;;;0.30;0.30;;;18.10;99.90;;;;;;5087538;28;20199;-84
2021/07/31 04:49:36;;;;;;;0.30;0.30;;;18.10;99.90;;;;;;5088802;28;20188;-83
2021/07/31 04:52:02;;;;;;;0.53;0.30;;;18.00;99.90;;;;;;5099230;28;20224;-83
2021/07/31 04:54:29;;;;;;;0.20;0.20;;;18.00;99.90;;;;;;5086808;28;20189;-83
2021/07/31 04:56:54;;;;;;;0.20;0.20;;;18.00;99.90;;;;;;5088071;28;20184;-84
2021/07/31 04:59:20;;;;;;;0.10;0.10;;;17.90;99.90;;;;;;5081437;28;20179;-84
2021/07/31 05:01:45;;;;;;;0.20;0.20;;;17.90;99.90;;;;;;5098111;28;20215;-84
2021/07/31 05:04:11;;;;;;;0.43;0.43;;;17.90;99.90;;;;;;5101078;28;20183;-83
2021/07/31 05:06:37;;;;;;;0.30;0.30;;;18.00;99.90;;;;;;5091306;28;20419;-83
2021/07/31 05:09:05;;;;;;;0.17;0.17;;;18.00;99.90;;;;;;5094433;28;20276;-83
2021/07/31 05:11:30;;;;;;;0.10;0.10;;;18.00;99.90;;;;;;5089860;28;21719;-83
2021/07/31 05:13:56;;;;;;;0.10;0.10;;;18.10;99.90;;;;;;5088205;28;20225;-83
2021/07/31 05:16:21;;;;;;;0.10;0.10;;;18.10;99.90;;;;;;5096239;28;20181;-82
2021/07/31 05:18:47;;;;;;;0.10;0.10;;;18.10;99.90;;;;;;5083415;28;20184;-82
2021/07/31 05:21:12;;;;;;;0.10;0.10;;;18.10;99.90;;;;;;5107301;28;20551;-82
2021/07/31 05:23:38;;;;;;;0.63;0.20;;;18.10;99.90;;;;;;5084502;28;20668;-81
2021/07/31 05:26:08;;;;;;;0.27;0.27;;;18.00;99.90;;;;;;5091652;28;20272;-82
2021/07/31 05:28:34;;;;;;;2.33;0.27;;;17.90;99.90;;;;;;5097726;28;20189;-83
2021/07/31 05:30:59;;;;;;;0.30;0.30;;;17.90;99.90;;;;;;5095070;28;20581;-84
2021/07/31 05:33:25;;;;;;;0.50;0.40;;;17.90;99.90;;;;;;5089201;28;20652;-83
2021/07/31 05:35:52;;;;;;;0.53;0.53;;;17.80;99.90;;;;;;5089845;28;20794;-84
2021/07/31 05:38:17;;;;;;;0.30;0.30;;;17.80;99.90;;;;;;5093963;28;20929;-84
2021/07/31 05:40:43;;;;;;;0.10;0.10;;;17.80;99.90;;;;;;5106629;27;20231;-84
2021/07/31 05:43:09;;;;;;;0.20;0.20;;;17.80;99.90;;;;;;5086124;28;20187;-84
2021/07/31 05:45:34;;;;;;;0.33;0.33;;;17.90;99.90;;;;;;5091476;28;20192;-84
2021/07/31 05:48:00;;;;;;;0.83;0.57;;;17.90;99.90;;;;;;5081288;28;20181;-84
2021/07/31 05:50:25;;;;;;;0.37;0.37;;;18.00;99.90;;;;;;5091023;28;20220;-84
2021/07/31 05:52:51;;;;;;;0.20;0.20;;;18.00;99.90;;;;;;5090664;28;20223;-83
2021/07/31 05:55:17;;;;;;;0.23;0.23;;;18.10;99.90;;;;;;5111045;27;20530;-83
2021/07/31 05:57:42;;;;;;;0.40;0.40;;;18.20;99.90;;;;;;5085516;28;20195;-83
2021/07/31 06:00:08;;;;;;;0.30;0.30;;;18.20;99.90;;;;;;5097808;28;20578;-84
2021/07/31 06:02:34;;;;;;;0.20;0.20;;;18.10;99.90;;;;;;5090729;28;20182;-83
2021/07/31 06:04:59;;;;;;;0.10;0.10;;;18.20;99.90;;;;;;5085002;28;20194;-84
2021/07/31 06:07:25;;;;;;;0.13;0.13;;;18.40;99.90;;;;;;5081628;28;20216;-83
2021/07/31 06:09:53;;;;;;;0.27;0.27;;;18.50;99.90;;;;;;5079845;28;20215;-84
2021/07/31 06:12:18;;;;;;;0.33;0.30;;;18.50;99.90;;;;;;5082998;28;20244;-84
2021/07/31 06:14:44;;;;;;;0.40;0.40;;;18.60;99.90;;;;;;5089412;28;20211;-84
2021/07/31 06:17:10;;;;;;;0.33;0.33;;;18.60;99.90;;;;;;5085174;28;20191;-84
2021/07/31 06:19:35;;;;;;;0.20;0.20;;;18.60;99.90;;;;;;5084841;28;20269;-84
2021/07/31 06:22:03;;;;;;;0.67;0.43;;;18.60;99.90;;;;;;5090130;28;20231;-84
2021/07/31 06:24:28;;;;;;;3.30;0.37;;;18.70;99.90;;;;;;5101616;28;20338;-84
2021/07/31 06:26:54;;;;;;;2.40;0.20;;;18.80;99.90;;;;;;5096660;28;20272;-84
2021/07/31 06:29:19;;;;;;;0.50;0.30;;;18.80;99.90;;;;;;5098237;28;20199;-84
2021/07/31 06:31:45;;;;;;;0.40;0.40;;;19.00;99.90;;;;;;5099344;28;20208;-84
2021/07/31 06:34:11;;;;;;;0.20;0.20;;;19.10;99.90;;;;;;5103301;28;20183;-84
2021/07/31 06:36:37;;;;;;;0.40;0.40;;;19.10;99.90;;;;;;5101550;28;20641;-83
2021/07/31 06:39:03;;;;;;;0.30;0.30;;;19.30;99.90;;;;;;5082889;28;20191;-84
2021/07/31 06:41:29;;;;;;;0.53;0.20;;;19.40;99.90;;;;;;5096681;27;20211;-84
2021/07/31 06:43:55;;;;;;;0.30;0.30;;;19.50;99.90;;;;;;5082311;28;20564;-84
2021/07/31 06:46:25;;;;;;;0.50;0.50;;;19.50;99.90;;;;;;5097094;28;20193;-83
2021/07/31 06:48:52;;;;;;;0.13;0.13;;;19.60;99.90;;;;;;5091904;28;20189;-84
2021/07/31 06:51:19;;;;;;;0.20;0.20;;;19.70;99.90;;;;;;5102960;28;20216;-84
2021/07/31 06:53:46;;;;;;;0.30;0.30;;;19.80;99.90;;;;;;5081299;28;20196;-83
2021/07/31 06:56:11;;;;;;;0.73;0.70;;;19.80;99.90;;;;;;5085552;28;20256;-82
2021/07/31 06:58:37;;;;;;;0.43;0.43;;;19.90;99.90;;;;;;5083433;28;20280;-81
2021/07/31 07:01:02;;;;;;;0.30;0.30;;;20.00;99.90;;;;;;5082095;28;20244;-81
2021/07/31 07:03:28;;;;;;;0.20;0.20;;;20.10;99.90;;;;;;5090782;28;20290;-82
2021/07/31 07:05:53;;;;;;;0.20;0.20;;;19.90;99.90;;;;;;5079787;28;20188;-83
2021/07/31 07:08:20;;;;;;;0.30;0.30;;;19.80;99.90;;;;;;5082827;28;20195;-83
2021/07/31 07:10:45;;;;;;;0.37;0.33;;;19.90;99.90;;;;;;5100684;28;20208;-82
2021/07/31 07:13:11;;;;;;;0.27;0.27;;;19.90;99.90;;;;;;5088904;28;20187;-83
2021/07/31 07:15:36;;;;;;;0.20;0.20;;;19.90;99.90;;;;;;5104736;28;20181;-81
2021/07/31 07:18:02;;;;;;;2.67;0.93;;;19.90;99.90;;;;;;5087123;28;20185;-83
2021/07/31 07:20:28;;;;;;;0.30;0.30;;;20.10;99.90;;;;;;5087129;28;20303;-83
2021/07/31 07:22:53;;;;;;;0.40;0.40;;;20.20;99.90;;;;;;5088529;28;20185;-83
2021/07/31 07:25:19;;;;;;;0.30;0.30;;;20.30;99.90;;;;;;5098822;28;20291;-83
2021/07/31 07:27:45;;;;;;;0.20;0.20;;;20.50;99.90;;;;;;5099253;28;20196;-83
2021/07/31 07:30:12;;;;;;;0.40;0.40;;;20.60;99.90;;;;;;5062916;28;20212;-83
2021/07/31 07:32:38;;;;;;;0.30;0.30;;;20.50;99.90;;;;;;5071917;28;20229;-82
2021/07/31 07:35:05;;;;;;;4.70;0.50;;;20.70;99.90;;;;;;5086884;28;20184;-82
2021/07/31 07:37:31;;;;;;;0.30;0.20;;;20.80;99.90;;;;;;5094441;28;20180;-81
2021/07/31 07:39:58;;;;;;;0.57;0.57;;;21.10;99.90;;;;;;5092774;28;20586;-82
2021/07/31 07:42:23;;;;;;;1.27;0.37;;;21.20;99.90;;;;;;5096393;28;20184;-83
2021/07/31 07:44:49;;;;;;;0.30;0.30;;;21.30;99.90;;;;;;5093605;28;20180;-83
2021/07/31 07:47:14;;;;;;;0.33;0.33;;;21.40;99.90;;;;;;5082688;28;20225;-84
2021/07/31 07:49:40;;;;;;;0.30;0.30;;;21.40;99.90;;;;;;5100942;28;20235;-83
2021/07/31 07:52:06;;;;;;;0.93;0.77;;;21.50;99.90;;;;;;5091289;28;20222;-83
2021/07/31 07:54:32;;;;;;;0.53;0.53;;;21.50;99.90;;;;;;5089179;28;20184;-84
2021/07/31 07:56:58;;;;;;;0.50;0.50;;;21.50;99.90;;;;;;5093194;28;20184;-84
2021/07/31 07:59:23;;;;;;;0.30;0.30;;;21.70;99.90;;;;;;5100844;28;20238;-83
2021/07/31 08:01:49;;;;;;;0.30;0.20;;;21.70;99.90;;;;;;5089605;28;20235;-84
2021/07/31 08:04:15;;;;;;;0.20;0.20;;;21.80;99.90;;;;;;5098416;28;20273;-83
2021/07/31 08:06:40;;;;;;;0.20;0.20;;;21.90;99.90;;;;;;5084823;28;20198;-83
2021/07/31 08:09:06;;;;;;;0.20;0.20;;;21.70;99.90;;;;;;5099157;28;20188;-84
2021/07/31 08:11:32;;;;;;;0.60;0.60;;;21.80;99.90;;;;;;5087035;28;20223;-84
2021/07/31 08:13:58;;;;;;;0.40;0.40;;;21.90;99.90;;;;;;5100951;28;20216;-84
2021/07/31 08:16:23;;;;;;;0.30;0.30;;;22.00;99.90;;;;;;5093008;28;20211;-84
2021/07/31 08:18:49;;;;;;;0.33;0.33;;;22.00;99.90;;;;;;5090315;28;20388;-84
2021/07/31 08:21:15;;;;;;;0.40;0.40;;;22.10;99.90;;;;;;5090282;28;20222;-85
2021/07/31 08:23:41;;;;;;;0.30;0.30;;;22.10;99.90;;;;;;5098187;28;20663;-84
2021/07/31 08:26:12;;;;;;;1.60;0.60;;;22.10;99.90;;;;;;5103662;28;20194;-84
2021/07/31 08:28:39;;;;;;;0.83;0.47;;;22.00;99.90;;;;;;5100743;28;20249;-85
2021/07/31 08:31:06;;;;;;;0.47;0.40;;;22.10;99.90;;;;;;5082672;28;20211;-84
2021/07/31 08:33:32;;;;;;;0.20;0.20;;;22.00;99.90;;;;;;5095069;28;20537;-84
2021/07/31 08:35:59;;;;;;;0.63;0.63;;;22.20;99.90;;;;;;5081167;28;20270;-83
2021/07/31 08:38:24;;;;;;;0.17;0.17;;;22.20;99.90;;;;;;5085252;28;20179;-82
2021/07/31 08:40:50;;;;;;;0.30;0.30;;;22.20;99.90;;;;;;5109703;27;20579;-83
2021/07/31 08:43:16;;;;;;;0.30;0.30;;;22.40;99.90;;;;;;5093360;28;20237;-84
2021/07/31 08:45:43;;;;;;;0.23;0.23;;;22.60;99.90;;;;;;5095526;28;20180;-83
2021/07/31 08:48:09;;;;;;;0.17;0.17;;;22.60;99.90;;;;;;5091533;28;20672;-83
2021/07/31 08:50:37;;;;;;;0.73;0.70;;;22.50;99.90;;;;;;5091474;28;20196;-83
2021/07/31 08:53:02;;;;;;;0.40;0.40;;;22.50;99.90;;;;;;5092336;28;20180;-82
2021/07/31 08:55:28;;;;;;;3.13;0.43;;;22.10;99.90;;;;;;5092142;28;20571;-83
2021/07/31 08:57:53;;;;;;;0.87;0.40;;;22.20;99.90;;;;;;5088867;28;20187;-82
2021/07/31 09:00:20;;;;;;;0.20;0.20;;;22.10;99.90;;;;;;5087046;28;20299;-82
2021/07/31 09:02:47;;;;;;;0.30;0.30;;;22.40;99.90;;;;;;5100398;28;20176;-83
2021/07/31 09:05:28;;;;;;;0.27;0.27;;;22.40;99.90;;;;;;5095183;28;20176;-82
2021/07/31 09:08:00;;;;;;;0.77;0.60;;;22.40;99.90;;;;;;5093789;28;20275;-83
2021/07/31 09:10:25;;;;;;;0.10;0.10;;;22.50;99.90;;;;;;5101796;28;20229;-83
2021/07/31 09:12:56;;;;;;;0.20;0.20;;;22.50;99.90;;;;;;5097945;28;20208;-83
2021/07/31 09:15:35;;;;;;;0.40;0.40;;;22.30;99.90;;;;;;5096976;28;20282;-82
2021/07/31 09:18:24;;;;;;;0.30;0.30;;;22.40;99.90;;;;;;5099280;28;20183;-83
2021/07/31 09:20:59;;;;;;;0.30;0.30;;;22.40;99.90;;;;;;5094016;28;20208;-83
2021/07/31 09:23:50;;;;;;;0.63;0.63;;;22.40;99.90;;;;;;5114932;28;20230;-83
2021/07/31 09:26:21;;;;;;;0.20;0.20;;;22.60;99.90;;;;;;5104394;28;20234;-83
2021/07/31 09:29:00;;;;;;;0.20;0.20;;;22.70;99.90;;;;;;5091800;28;20251;-83
2021/07/31 09:31:26;;;;;;;0.40;0.40;;;22.70;99.90;;;;;;5097950;28;20211;-83
2021/07/31 09:33:52;;;;;;;0.40;0.40;;;22.70;99.90;;;;;;5094769;28;20561;-83
2021/07/31 09:36:18;;;;;;;0.93;0.93;;;22.90;99.90;;;;;;5114159;28;20270;-83
2021/07/31 09:38:46;;;;;;;0.17;0.17;;;23.00;99.90;;;;;;5087508;28;20192;-83
2021/07/31 09:41:22;;;;;;;1.03;0.40;;;23.10;99.90;;;;;;5112095;28;20212;-83
2021/07/31 09:44:01;;;;;;;0.30;0.30;;;23.20;99.90;;;;;;5092187;28;20193;-82
2021/07/31 09:46:32;;;;;;;1.20;0.50;;;23.20;99.90;;;;;;5107994;28;20679;-82
2021/07/31 09:48:59;;;;;;;0.20;0.20;;;23.10;99.90;;;;;;5098824;28;20224;-82
2021/07/31 09:51:32;;;;;;;0.53;0.53;;;23.30;99.90;;;;;;5105582;27;20216;-83
2021/07/31 09:53:59;;;;;;;0.47;0.47;;;23.50;99.90;;;;;;5093519;28;20195;-83
2021/07/31 09:56:28;;;;;;;0.27;0.27;;;23.60;99.90;;;;;;5109546;28;20195;-83
2021/07/31 09:58:55;;;;;;;0.17;0.17;;;23.90;99.90;;;;;;5094896;28;20609;-82
2021/07/31 10:01:21;;;;;;;0.20;0.20;;;23.90;99.90;;;;;;5102545;28;20204;-83
2021/07/31 10:03:47;;;;;;;0.43;0.33;;;24.00;99.90;;;;;;5098721;28;20651;-83
2021/07/31 10:06:14;;;;;;;0.40;0.40;;;24.10;99.90;;;;;;5094235;28;20242;-83
2021/07/31 10:08:41;;;;;;;0.43;0.40;;;24.40;99.90;;;;;;5093439;28;20192;-83
2021/07/31 10:11:08;;;;;;;0.37;0.20;;;24.40;99.90;;;;;;5092370;28;20239;-82
2021/07/31 10:13:37;;;;;;;0.30;0.30;;;24.60;99.90;;;;;;5092688;28;20188;-83
2021/07/31 10:16:03;;;;;;;0.20;0.20;;;24.90;99.90;;;;;;5093022;28;20192;-83
2021/07/31 10:18:28;;;;;;;0.40;0.40;;;25.50;99.90;;;;;;5102748;28;20191;-83
2021/07/31 10:20:54;;;;;;;0.73;0.43;;;25.60;99.90;;;;;;5086060;28;20215;-83
2021/07/31 10:23:54;;;;;;;0.20;0.20;;;25.30;99.90;;;;;;5088654;28;20763;-83
2021/07/31 10:26:20;;;;;;;0.20;0.20;;;25.00;99.90;;;;;;5093717;28;20656;-83
2021/07/31 10:28:46;;;;;;;0.20;0.20;;;25.30;99.90;;;;;;5104167;28;20176;-83
2021/07/31 10:31:29;;;;;;;0.20;0.20;;;25.00;99.90;;;;;;5103735;28;20727;-83
2021/07/31 10:33:55;;;;;;;0.63;0.63;;;25.10;99.90;;;;;;5109075;27;20340;-83
2021/07/31 10:36:32;;;;;;;0.20;0.20;;;25.20;99.90;;;;;;5102961;28;20687;-82
2021/07/31 10:38:59;;;;;;;0.30;0.30;;;25.20;99.90;;;;;;5101805;27;20180;-83
2021/07/31 10:41:59;;;;;;;0.30;0.30;;;25.20;99.90;;;;;;5093098;28;20212;-83
2021/07/31 10:44:26;;;;;;;0.63;0.63;;;25.30;99.90;;;;;;5096365;28;20219;-83
2021/07/31 10:47:20;;;;;;;0.20;0.20;;;25.40;99.90;;;;;;5092414;28;20191;-83
2021/07/31 10:49:46;;;;;;;0.67;0.53;;;25.20;99.90;;;;;;5108616;27;20187;-83
2021/07/31 10:52:51;;;;;;;1.60;0.40;;;25.00;99.90;;;;;;5091950;28;20215;-83
2021/07/31 10:55:19;;;;;;;1.37;0.30;;;25.20;99.90;;;;;;5095304;28;20184;-83
2021/07/31 10:57:54;;;;;;;0.63;0.60;;;25.70;99.90;;;;;;5102646;28;20184;-83
2021/07/31 11:00:32;;;;;;;1.20;0.50;;;25.80;99.90;;;;;;5100391;28;20628;-83
2021/07/31 11:02:58;;;;;;;2.53;0.30;;;25.60;99.90;;;;;;5090218;28;20184;-83
2021/07/31 11:05:25;;;;;;;0.57;0.30;;;25.30;99.90;;;;;;5092278;28;20554;-83
2021/07/31 11:07:56;;;;;;;0.33;0.30;;;25.30;99.90;;;;;;5086339;28;20206;-83
2021/07/31 11:10:31;;;;;;;0.20;0.20;;;25.50;99.90;;;;;;5093415;28;20200;-81
2021/07/31 11:12:57;;;;;;;0.33;0.33;;;25.30;99.90;;;;;;5093180;28;20191;-83
2021/07/31 11:15:25;;;;;;;0.10;0.10;;;25.40;99.90;;;;;;5108852;28;20193;-83
2021/07/31 11:17:56;;;;;;;0.30;0.30;;;25.40;99.90;;;;;;5100601;28;20181;-83
2021/07/31 11:20:36;;;;;;;0.40;0.40;;;25.00;99.90;;;;;;5101618;28;20282;-83
2021/07/31 11:23:08;;;;;;;0.20;0.20;;;25.00;99.90;;;;;;5102519;28;20218;-83
2021/07/31 11:25:34;;;;;;;0.87;0.77;;;24.80;99.90;;;;;;5105993;28;20187;-82
2021/07/31 11:28:09;;;;;;;0.30;0.30;;;24.80;99.90;;;;;;5091778;28;20215;-83
2021/07/31 11:30:40;;;;;;;0.20;0.20;;;25.00;99.90;;;;;;5105798;28;20203;-83
2021/07/31 11:33:16;;;;;;;0.17;0.17;;;25.10;99.90;;;;;;5099366;28;20187;-83
2021/07/31 11:35:41;;;;;;;0.63;0.47;;;25.40;99.90;;;;;;5090036;28;20678;-83
2021/07/31 11:38:37;;;;;;;0.43;0.37;;;25.90;99.90;;;;;;5090794;28;20176;-83
2021/07/31 11:41:07;;;;;;;0.87;0.50;;;25.30;99.90;;;;;;5095670;28;20711;-83
2021/07/31 11:43:48;;;;;;;0.43;0.40;;;24.90;99.90;;;;;;5086399;28;20184;-83
2021/07/31 11:46:23;;;;;;;0.53;0.43;;;24.60;99.90;;;;;;5097524;28;20180;-83
2021/07/31 11:48:49;;;;;;;0.17;0.17;;;24.60;99.90;;;;;;5094707;28;20575;-83
2021/07/31 11:51:15;;;;;;;0.20;0.20;;;24.40;99.90;;;;;;5106939;28;20211;-83
2021/07/31 11:53:40;;;;;;;0.20;0.20;;;24.60;99.90;;;;;;5084077;28;20188;-83
2021/07/31 11:56:17;;;;;;;0.30;0.30;;;24.90;99.90;;;;;;5102161;28;20272;-83
2021/07/31 11:58:44;;;;;;;0.30;0.30;;;25.00;99.90;;;;;;5108380;28;20209;-83
2021/07/31 12:01:10;;;;;;;0.20;0.20;;;24.90;99.90;;;;;;5100428;28;20225;-83
2021/07/31 12:03:45;;;;;;;0.43;0.43;;;24.90;99.90;;;;;;5095348;28;20204;-82
2021/07/31 12:06:29;;;;;;;0.20;0.20;;;24.80;99.90;;;;;;5087717;28;20190;-83
2021/07/31 12:08:58;;;;;;;0.30;0.30;;;24.70;99.90;;;;;;5077639;28;20185;-84
2021/07/31 12:11:38;;;;;;;0.17;0.17;;;24.20;99.90;;;;;;5085299;28;20289;-84
2021/07/31 12:14:39;;;;;;;0.30;0.30;;;24.60;99.90;;;;;;5089450;28;20231;-83
2021/07/31 12:17:24;;;;;;;0.30;0.30;;;24.80;99.90;;;;;;5088665;28;20258;-83
2021/07/31 12:19:52;;;;;;;0.37;0.37;;;25.00;99.90;;;;;;5089308;28;20191;-83
2021/07/31 12:22:29;;;;;;;0.20;0.20;;;25.20;99.90;;;;;;5103151;28;20244;-82
2021/07/31 12:25:26;;;;;;;0.10;0.10;;;25.50;99.90;;;;;;5094879;28;20210;-83
2021/07/31 12:27:54;;;;;;;0.40;0.40;;;25.40;99.90;;;;;;5074093;28;20196;-82
2021/07/31 12:30:38;;;;;;;0.40;0.40;;;25.60;99.90;;;;;;5107976;28;20305;-82
2021/07/31 12:33:06;;;;;;;0.33;0.33;;;25.70;99.90;;;;;;5105957;28;20204;-82
2021/07/31 12:35:39;;;;;;;0.50;0.50;;;26.00;99.90;;;;;;5091837;28;20206;-83
2021/07/31 12:38:24;;;;;;;0.30;0.30;;;25.90;99.90;;;;;;5091459;28;20184;-82
2021/07/31 12:40:57;;;;;;;0.30;0.30;;;25.50;99.90;;;;;;5114671;27;20237;-82
2021/07/31 12:43:25;;;;;;;0.20;0.20;;;25.30;99.90;;;;;;5100874;28;20192;-82
2021/07/31 12:45:52;;;;;;;4.70;0.50;;;25.40;99.90;;;;;;5106287;28;20591;-84
2021/07/31 12:48:18;;;;;;;0.40;0.40;;;25.30;99.90;;;;;;5089177;28;20189;-82
2021/07/31 12:50:44;;;;;;;0.50;0.40;;;25.50;99.90;;;;;;5088804;28;20212;-83